Map

Track Data

SID SEASON NUMBER BASIN SUBBASIN NAME ISO_TIME NATURE LAT LON WMO_WIND WMO_PRES WMO_AGENCY TRACK_TYPE DIST2LAND LANDFALL IFLAG USA_AGENCY USA_ATCF_ID USA_LAT USA_LON USA_RECORD USA_STATUS USA_WIND USA_PRES USA_SSHS USA_R34_NE USA_R34_SE USA_R34_SW USA_R34_NW USA_R50_NE USA_R50_SE USA_R50_SW USA_R50_NW USA_R64_NE USA_R64_SE USA_R64_SW USA_R64_NW USA_POCI USA_ROCI USA_RMW USA_EYE TOKYO_LAT TOKYO_LON TOKYO_GRADE TOKYO_WIND TOKYO_PRES TOKYO_R50_DIR TOKYO_R50_LONG TOKYO_R50_SHORT TOKYO_R30_DIR TOKYO_R30_LONG TOKYO_R30_SHORT TOKYO_LAND CMA_LAT CMA_LON CMA_CAT CMA_WIND CMA_PRES HKO_LAT HKO_LON HKO_CAT HKO_WIND HKO_PRES NEWDELHI_LAT NEWDELHI_LON NEWDELHI_GRADE NEWDELHI_WIND NEWDELHI_PRES NEWDELHI_CI NEWDELHI_DP NEWDELHI_POCI REUNION_LAT REUNION_LON REUNION_TYPE REUNION_WIND REUNION_PRES REUNION_TNUM REUNION_CI REUNION_RMW REUNION_R34_NE REUNION_R34_SE REUNION_R34_SW REUNION_R34_NW REUNION_R50_NE REUNION_R50_SE REUNION_R50_SW REUNION_R50_NW REUNION_R64_NE REUNION_R64_SE REUNION_R64_SW REUNION_R64_NW BOM_LAT BOM_LON BOM_TYPE BOM_WIND BOM_PRES BOM_TNUM BOM_CI BOM_RMW BOM_R34_NE BOM_R34_SE BOM_R34_SW BOM_R34_NW BOM_R50_NE BOM_R50_SE BOM_R50_SW BOM_R50_NW BOM_R64_NE BOM_R64_SE BOM_R64_SW BOM_R64_NW BOM_ROCI BOM_POCI BOM_EYE BOM_POS_METHOD BOM_PRES_METHOD NADI_LAT NADI_LON NADI_CAT NADI_WIND NADI_PRES WELLINGTON_LAT WELLINGTON_LON WELLINGTON_WIND WELLINGTON_PRES DS824_LAT DS824_LON DS824_STAGE DS824_WIND DS824_PRES TD9636_LAT TD9636_LON TD9636_STAGE TD9636_WIND TD9636_PRES TD9635_LAT TD9635_LON TD9635_WIND TD9635_PRES TD9635_ROCI NEUMANN_LAT NEUMANN_LON NEUMANN_CLASS NEUMANN_WIND NEUMANN_PRES MLC_LAT MLC_LON MLC_CLASS MLC_WIND MLC_PRES USA_GUST BOM_GUST BOM_GUST_PER REUNION_GUST REUNION_GUST_PER USA_SEAHGT USA_SEARAD_NE USA_SEARAD_SE USA_SEARAD_SW USA_SEARAD_NW STORM_SPEED STORM_DIR
1899246N13322 1899 30 NA NA NOT_NAMED 1899-09-03 00:00:00 TS 13.2000 -38.4000 35 hurdat_atl main 1732 1652 O_____________ hurdat_atl AL051899 13.2000 -38.4000 TS 35 0 18 269
1899246N13322 1899 30 NA NA NOT_NAMED 1899-09-03 03:00:00 TS 13.1857 -39.3050 main 1652 1575 P_____________ AL051899 13.1857 -39.3050 TS 35 0 18 270
1899246N13322 1899 30 NA NA NOT_NAMED 1899-09-03 06:00:00 TS 13.2000 -40.2000 35 hurdat_atl main 1575 1515 O_____________ hurdat_atl AL051899 13.2000 -40.2000 TS 35 0 17 273
1899246N13322 1899 30 NA NA NOT_NAMED 1899-09-03 09:00:00 TS 13.2695 -41.0851 main 1507 1450 P_____________ AL051899 13.2695 -41.0851 TS 35 0 18 277
1899246N13322 1899 30 NA NA NOT_NAMED 1899-09-03 12:00:00 TS 13.4000 -42.0000 35 hurdat_atl main 1443 1390 O_____________ hurdat_atl AL051899 13.4000 -42.0000 TS 35 0 19 280
1899246N13322 1899 30 NA NA NOT_NAMED 1899-09-03 15:00:00 TS 13.5850 -42.9999 main 1384 1338 P_____________ AL051899 13.5850 -42.9999 TS 35 0 20 282
1899246N13322 1899 30 NA NA NOT_NAMED 1899-09-03 18:00:00 TS 13.8000 -44.0000 35 hurdat_atl main 1332 1293 O_____________ hurdat_atl AL051899 13.8000 -44.0000 TS 35 0 19 283
1899246N13322 1899 30 NA NA NOT_NAMED 1899-09-03 21:00:00 TS 14.0072 -44.9375 main 1293 1253 P_____________ AL051899 14.0072 -44.9375 TS 35 0 18 283
1899246N13322 1899 30 NA NA NOT_NAMED 1899-09-04 00:00:00 TS 14.2000 -45.8000 35 hurdat_atl main 1253 1218 O_____________ hurdat_atl AL051899 14.2000 -45.8000 TS 35 0 17 282
1899246N13322 1899 30 NA NA NOT_NAMED 1899-09-04 03:00:00 TS 14.3648 -46.6101 main 1222 1192 P_____________ AL051899 14.3648 -46.6101 TS 35 0 15 282
1899246N13322 1899 30 NA NA NOT_NAMED 1899-09-04 06:00:00 TS 14.5000 -47.3000 35 hurdat_atl main 1192 1176 O_____________ hurdat_atl AL051899 14.5000 -47.3000 TS 35 0 12 281
1899246N13322 1899 30 NA NA NOT_NAMED 1899-09-04 09:00:00 TS 14.6072 -47.8601 main 1171 1161 P_____________ AL051899 14.6072 -47.8601 TS 37 0 10 282
1899246N13322 1899 30 NA NA NOT_NAMED 1899-09-04 12:00:00 TS 14.7000 -48.3000 40 hurdat_atl main 1162 1153 O_____________ hurdat_atl AL051899 14.7000 -48.3000 TS 40 0 8 284
1899246N13322 1899 30 NA NA NOT_NAMED 1899-09-04 15:00:00 TS 14.8073 -48.6725 main 1154 1150 P_____________ AL051899 14.8073 -48.6725 TS 42 0 7 286
1899246N13322 1899 30 NA NA NOT_NAMED 1899-09-04 18:00:00 TS 14.9000 -49.0000 45 hurdat_atl main 1152 1141 O_____________ hurdat_atl AL051899 14.9000 -49.0000 TS 45 0 7 283
1899246N13322 1899 30 NA NA NOT_NAMED 1899-09-04 21:00:00 TS 14.9574 -49.3501 main 1146 1131 P_____________ AL051899 14.9574 -49.3501 TS 47 0 7 278
1899246N13322 1899 30 NA NA NOT_NAMED 1899-09-05 00:00:00 TS 15.0000 -49.7000 50 hurdat_atl main 1131 1117 O_____________ hurdat_atl AL051899 15.0000 -49.7000 TS 50 0 7 277
1899246N13322 1899 30 NA NA NOT_NAMED 1899-09-05 03:00:00 TS 15.0424 -50.0501 main 1113 1110 P_____________ AL051899 15.0424 -50.0501 TS 52 0 7 278
1899246N13322 1899 30 NA NA NOT_NAMED 1899-09-05 06:00:00 TS 15.1000 -50.4000 55 hurdat_atl main 1110 1102 O_____________ hurdat_atl AL051899 15.1000 -50.4000 TS 55 0 7 283
1899246N13322 1899 30 NA NA NOT_NAMED 1899-09-05 09:00:00 TS 15.1924 -50.7425 main 1109 1102 P_____________ AL051899 15.1924 -50.7425 TS 57 0 7 286
1899246N13322 1899 30 NA NA NOT_NAMED 1899-09-05 12:00:00 TS 15.3000 -51.1000 60 hurdat_atl main 1105 1099 O_____________ hurdat_atl AL051899 15.3000 -51.1000 TS 60 0 8 285
1899246N13322 1899 30 NA NA NOT_NAMED 1899-09-05 15:00:00 TS 15.3925 -51.4926 main 1104 1098 P_____________ AL051899 15.3925 -51.4926 TS 62 0 8 285
1899246N13322 1899 30 NA NA NOT_NAMED 1899-09-05 18:00:00 TS 15.5000 -51.9000 65 hurdat_atl main 1104 1090 O_____________ hurdat_atl AL051899 15.5000 -51.9000 HU 65 1 8 288
1899246N13322 1899 30 NA NA NOT_NAMED 1899-09-05 21:00:00 TS 15.6500 -52.3075 main 1090 1064 P_____________ AL051899 15.6500 -52.3075 HU 67 1 8 291
1899246N13322 1899 30 NA NA NOT_NAMED 1899-09-06 00:00:00 TS 15.8000 -52.7000 70 hurdat_atl main 1064 1043 O_____________ hurdat_atl AL051899 15.8000 -52.7000 HU 70 1 8 290
1899246N13322 1899 30 NA NA NOT_NAMED 1899-09-06 03:00:00 TS 15.9074 -53.0501 main 1034 1014 P_____________ AL051899 15.9074 -53.0501 HU 70 1 7 287
1899246N13322 1899 30 NA NA NOT_NAMED 1899-09-06 06:00:00 TS 16.0000 -53.4000 70 hurdat_atl main 1014 986 O_____________ hurdat_atl AL051899 16.0000 -53.4000 HU 70 1 7 285
1899246N13322 1899 30 NA NA NOT_NAMED 1899-09-06 09:00:00 TS 16.1000 -53.8000 main 986 959 P_____________ AL051899 16.1000 -53.8000 HU 70 1 8 285
1899246N13322 1899 30 NA NA NOT_NAMED 1899-09-06 12:00:00 TS 16.2000 -54.2000 70 hurdat_atl main 959 933 O_____________ hurdat_atl AL051899 16.2000 -54.2000 HU 70 1 8 286
1899246N13322 1899 30 NA NA NOT_NAMED 1899-09-06 15:00:00 TS 16.3075 -54.5725 main 933 917 P_____________ AL051899 16.3075 -54.5725 HU 70 1 7 287
1899246N13322 1899 30 NA NA NOT_NAMED 1899-09-06 18:00:00 TS 16.4000 -54.9000 70 hurdat_atl main 917 902 O_____________ hurdat_atl AL051899 16.4000 -54.9000 HU 70 1 6 285
1899246N13322 1899 30 NA NA NOT_NAMED 1899-09-06 21:00:00 TS 16.4574 -55.1576 main 902 887 P_____________ AL051899 16.4574 -55.1576 HU 70 1 5 282
1899246N13322 1899 30 NA NA NOT_NAMED 1899-09-07 00:00:00 TS 16.5000 -55.4000 70 hurdat_atl main 887 865 O_____________ hurdat_atl AL051899 16.5000 -55.4000 HU 70 1 5 280
1899246N13322 1899 30 NA NA NOT_NAMED 1899-09-07 03:00:00 TS 16.5424 -55.6776 main 865 853 P_____________ AL051899 16.5424 -55.6776 HU 72 1 6 280
1899246N13322 1899 30 NA NA NOT_NAMED 1899-09-07 06:00:00 TS 16.6000 -56.0000 75 hurdat_atl main 853 835 O_____________ hurdat_atl AL051899 16.6000 -56.0000 HU 75 1 7 283
1899246N13322 1899 30 NA NA NOT_NAMED 1899-09-07 09:00:00 TS 16.6925 -56.3775 main 835 819 P_____________ AL051899 16.6925 -56.3775 HU 77 1 8 285
1899246N13322 1899 30 NA NA NOT_NAMED 1899-09-07 12:00:00 TS 16.8000 -56.8000 80 hurdat_atl main 819 806 O_____________ hurdat_atl AL051899 16.8000 -56.8000 HU 80 1 9 284
1899246N13322 1899 30 NA NA NOT_NAMED 1899-09-07 15:00:00 TS 16.8999 -57.2425 main 806 790 P_____________ AL051899 16.8999 -57.2425 HU 82 1 9 283
1899246N13322 1899 30 NA NA NOT_NAMED 1899-09-07 18:00:00 TS 17.0000 -57.7000 85 hurdat_atl main 790 780 O_____________ hurdat_atl AL051899 17.0000 -57.7000 HU 85 2 9 283
1899246N13322 1899 30 NA NA NOT_NAMED 1899-09-07 21:00:00 TS 17.1074 -58.1500 main 781 749 P_____________ AL051899 17.1074 -58.1500 HU 85 2 9 283
1899246N13322 1899 30 NA NA NOT_NAMED 1899-09-08 00:00:00 TS 17.2000 -58.6000 85 hurdat_atl main 749 708 O_____________ hurdat_atl AL051899 17.2000 -58.6000 HU 85 2 9 279
1899246N13322 1899 30 NA NA NOT_NAMED 1899-09-08 03:00:00 TS 17.2498 -59.0426 main 708 653 P_____________ AL051899 17.2498 -59.0426 HU 87 2 9 277
1899246N13322 1899 30 NA NA NOT_NAMED 1899-09-08 06:00:00 TS 17.3000 -59.5000 90 hurdat_atl main 653 610 O_____________ hurdat_atl AL051899 17.3000 -59.5000 HU 90 2 9 278
1899246N13322 1899 30 NA NA NOT_NAMED 1899-09-08 09:00:00 TS 17.3698 -59.9777 main 599 545 P_____________ AL051899 17.3698 -59.9777 HU 92 2 10 282
1899246N13322 1899 30 NA NA NOT_NAMED 1899-09-08 12:00:00 TS 17.5000 -60.5000 95 hurdat_atl main 545 479 O_____________ hurdat_atl AL051899 17.5000 -60.5000 HU 95 2 11 289
1899246N13322 1899 30 NA CS NOT_NAMED 1899-09-08 15:00:00 TS 17.7351 -61.1072 main 479 412 P_____________ AL051899 17.7351 -61.1072 HU 97 3 12 294
1899246N13322 1899 30 NA CS NOT_NAMED 1899-09-08 18:00:00 TS 18.0000 -61.7000 100 hurdat_atl main 412 369 O_____________ hurdat_atl AL051899 18.0000 -61.7000 HU 100 3 11 295
1899246N13322 1899 30 NA CS NOT_NAMED 1899-09-08 21:00:00 TS 18.1997 -62.1653 main 359 316 P_____________ AL051899 18.1997 -62.1653 HU 100 3 9 295
1899246N13322 1899 30 NA CS NOT_NAMED 1899-09-09 00:00:00 TS 18.4000 -62.6000 100 hurdat_atl main 316 264 O_____________ hurdat_atl AL051899 18.4000 -62.6000 HU 100 3 10 296
1899246N13322 1899 30 NA CS NOT_NAMED 1899-09-09 03:00:00 TS 18.6350 -63.1001 main 264 218 P_____________ AL051899 18.6350 -63.1001 HU 102 3 11 298
1899246N13322 1899 30 NA CS NOT_NAMED 1899-09-09 06:00:00 TS 18.9000 -63.6000 105 hurdat_atl main 218 185 O_____________ hurdat_atl AL051899 18.9000 -63.6000 HU 105 3 11 303
1899246N13322 1899 30 NA NA NOT_NAMED 1899-09-09 09:00:00 TS 19.1996 -64.0352 main 190 168 P_____________ AL051899 19.1996 -64.0352 HU 105 3 10 305
1899246N13322 1899 30 NA NA NOT_NAMED 1899-09-09 12:00:00 TS 19.5000 -64.5000 105 hurdat_atl main 168 154 O_____________ hurdat_atl AL051899 19.5000 -64.5000 HU 105 3 11 299
1899246N13322 1899 30 NA NA NOT_NAMED 1899-09-09 15:00:00 TS 19.7576 -65.0851 main 165 159 P_____________ AL051899 19.7576 -65.0851 HU 105 3 12 294
1899246N13322 1899 30 NA NA NOT_NAMED 1899-09-09 18:00:00 TS 20.0000 -65.7000 105 hurdat_atl main 178 178 O_____________ hurdat_atl AL051899 20.0000 -65.7000 HU 105 3 12 293
1899246N13322 1899 30 NA NA NOT_NAMED 1899-09-09 21:00:00 TS 20.2424 -66.2727 main 201 201 P_____________ AL051899 20.2424 -66.2727 HU 105 3 11 296
1899246N13322 1899 30 NA NA NOT_NAMED 1899-09-10 00:00:00 TS 20.5000 -66.8000 105 hurdat_atl main 234 234 O_____________ hurdat_atl AL051899 20.5000 -66.8000 HU 105 3 11 301
1899246N13322 1899 30 NA NA NOT_NAMED 1899-09-10 03:00:00 TS 20.7922 -67.2577 main 261 259 P_____________ AL051899 20.7922 -67.2577 HU 105 3 10 305
1899246N13322 1899 30 NA NA NOT_NAMED 1899-09-10 06:00:00 TS 21.1000 -67.7000 105 hurdat_atl main 261 252 O_____________ hurdat_atl AL051899 21.1000 -67.7000 HU 105 3 11 304
1899246N13322 1899 30 NA NA NOT_NAMED 1899-09-10 09:00:00 TS 21.3851 -68.2151 main 261 256 P_____________ AL051899 21.3851 -68.2151 HU 105 3 11 303
1899246N13322 1899 30 NA NA NOT_NAMED 1899-09-10 12:00:00 TS 21.7000 -68.7000 105 hurdat_atl main 271 265 O_____________ hurdat_atl AL051899 21.7000 -68.7000 HU 105 3 11 310
1899246N13322 1899 30 NA NA NOT_NAMED 1899-09-10 15:00:00 TS 22.0924 -69.1099 main 294 294 P_____________ AL051899 22.0924 -69.1099 HU 105 3 10 321
1899246N13322 1899 30 NA NA NOT_NAMED 1899-09-10 18:00:00 TS 22.5000 -69.4000 105 hurdat_atl main 326 326 O_____________ hurdat_atl AL051899 22.5000 -69.4000 HU 105 3 8 332
1899246N13322 1899 30 NA NA NOT_NAMED 1899-09-10 21:00:00 TS 22.8349 -69.5379 main 354 354 P_____________ AL051899 22.8349 -69.5379 HU 105 3 7 345
1899246N13322 1899 30 NA NA NOT_NAMED 1899-09-11 00:00:00 TS 23.2000 -69.6000 105 hurdat_atl main 393 393 O_____________ hurdat_atl AL051899 23.2000 -69.6000 HU 105 3 9 350
1899246N13322 1899 30 NA NA NOT_NAMED 1899-09-11 03:00:00 TS 23.6925 -69.7000 main 439 439 P_____________ AL051899 23.6925 -69.7000 HU 105 3 10 350
1899246N13322 1899 30 NA NA NOT_NAMED 1899-09-11 06:00:00 TS 24.2000 -69.8000 105 hurdat_atl main 469 469 O_____________ hurdat_atl AL051899 24.2000 -69.8000 HU 105 3 9 347
1899246N13322 1899 30 NA NA NOT_NAMED 1899-09-11 09:00:00 TS 24.6075 -69.9298 main 495 495 P_____________ AL051899 24.6075 -69.9298 HU 105 3 8 347
1899246N13322 1899 30 NA NA NOT_NAMED 1899-09-11 12:00:00 TS 25.0000 -70.0000 105 hurdat_atl main 523 523 O_____________ hurdat_atl AL051899 25.0000 -70.0000 HU 105 3 8 0
1899246N13322 1899 30 NA NA NOT_NAMED 1899-09-11 15:00:00 TS 25.4350 -69.9302 main 566 566 P_____________ AL051899 25.4350 -69.9302 HU 105 3 9 11
1899246N13322 1899 30 NA NA NOT_NAMED 1899-09-11 18:00:00 TS 25.9000 -69.8000 105 hurdat_atl main 618 618 O_____________ hurdat_atl AL051899 25.9000 -69.8000 HU 105 3 10 11
1899246N13322 1899 30 NA NA NOT_NAMED 1899-09-11 21:00:00 TS 26.3999 -69.7296 main 670 670 P_____________ AL051899 26.3999 -69.7296 HU 105 3 10 10
1899246N13322 1899 30 NA NA NOT_NAMED 1899-09-12 00:00:00 TS 26.9000 -69.6000 105 hurdat_atl main 724 724 O_____________ hurdat_atl AL051899 26.9000 -69.6000 HU 105 3 10 20
1899246N13322 1899 30 NA NA NOT_NAMED 1899-09-12 03:00:00 TS 27.3575 -69.3375 main 787 787 P_____________ AL051899 27.3575 -69.3375 HU 105 3 10 31
1899246N13322 1899 30 NA NA NOT_NAMED 1899-09-12 06:00:00 TS 27.8000 -69.0000 105 hurdat_atl main 840 840 O_____________ hurdat_atl AL051899 27.8000 -69.0000 HU 105 3 11 34
1899246N13322 1899 30 NA NA NOT_NAMED 1899-09-12 09:00:00 TS 28.2348 -68.6793 main 894 894 P_____________ AL051899 28.2348 -68.6793 HU 105 3 11 34
1899246N13322 1899 30 NA NA NOT_NAMED 1899-09-12 12:00:00 TS 28.7000 -68.3000 105 hurdat_atl main 962 962 O_____________ hurdat_atl AL051899 28.7000 -68.3000 HU 105 3 12 36
1899246N13322 1899 30 NA NA NOT_NAMED 1899-09-12 15:00:00 TS 29.2273 -67.8445 main 1020 1013 P_____________ AL051899 29.2273 -67.8445 HU 105 3 14 38
1899246N13322 1899 30 NA NA NOT_NAMED 1899-09-12 18:00:00 TS 29.8000 -67.3000 105 hurdat_atl main 1015 1014 O_____________ hurdat_atl AL051899 29.8000 -67.3000 HU 105 3 15 41
1899246N13322 1899 30 NA NA NOT_NAMED 1899-09-12 21:00:00 TS 30.3924 -66.6796 main 1015 1015 P_____________ AL051899 30.3924 -66.6796 HU 105 3 16 43
1899246N13322 1899 30 NA NA NOT_NAMED 1899-09-13 00:00:00 TS 31.0000 -66.0000 105 hurdat_atl main 1029 1029 O_____________ hurdat_atl AL051899 31.0000 -66.0000 HU 105 3 17 44
1899246N13322 1899 30 NA NA NOT_NAMED 1899-09-13 03:00:00 TS 31.5922 -65.3066 main 1050 1050 P_____________ AL051899 31.5922 -65.3066 HU 105 3 17 45
1899246N13322 1899 30 NA NA NOT_NAMED 1899-09-13 06:00:00 TS 32.2000 -64.6000 105 939 hurdat_atl main 1079 1079 O_____________ hurdat_atl AL051899 32.2000 -64.6000 HU 105 939 3 17 44
1899246N13322 1899 30 NA NA NOT_NAMED 1899-09-13 09:00:00 TS 32.8347 -63.8916 main 1113 1090 P_____________ AL051899 32.8347 -63.8916 HU 105 3 18 42
1899246N13322 1899 30 NA NA NOT_NAMED 1899-09-13 12:00:00 TS 33.5000 -63.2000 105 hurdat_atl main 1090 1059 O_____________ hurdat_atl AL051899 33.5000 -63.2000 HU 105 3 18 40
1899246N13322 1899 30 NA NA NOT_NAMED 1899-09-13 15:00:00 TS 34.1769 -62.5483 main 1060 1000 P_____________ AL051899 34.1769 -62.5483 HU 102 3 18 38
1899246N13322 1899 30 NA NA NOT_NAMED 1899-09-13 18:00:00 TS 34.9000 -61.9000 100 hurdat_atl main 1000 943 O_____________ hurdat_atl AL051899 34.9000 -61.9000 HU 100 3 18 36
1899246N13322 1899 30 NA NA NOT_NAMED 1899-09-13 21:00:00 TS 35.6544 -61.2275 main 935 885 P_____________ AL051899 35.6544 -61.2275 HU 97 3 20 35
1899246N13322 1899 30 NA NA NOT_NAMED 1899-09-14 00:00:00 TS 36.5000 -60.5000 95 hurdat_atl main 878 821 O_____________ hurdat_atl AL051899 36.5000 -60.5000 HU 95 2 22 34
1899246N13322 1899 30 NA NA NOT_NAMED 1899-09-14 03:00:00 TS 37.4697 -59.6791 main 817 771 P_____________ AL051899 37.4697 -59.6791 HU 92 2 24 34
1899246N13322 1899 30 NA NA NOT_NAMED 1899-09-14 06:00:00 TS 38.5000 -58.8000 90 hurdat_atl main 764 693 O_____________ hurdat_atl AL051899 38.5000 -58.8000 HU 90 2 24 35
1899246N13322 1899 30 NA NA NOT_NAMED 1899-09-14 09:00:00 TS 39.4544 -57.9105 main 685 624 P_____________ AL051899 39.4544 -57.9105 HU 87 2 24 35
1899246N13322 1899 30 NA NA NOT_NAMED 1899-09-14 12:00:00 TS 40.5000 -57.0000 85 hurdat_atl main 619 553 O_____________ hurdat_atl AL051899 40.5000 -57.0000 HU 85 2 27 32
1899246N13322 1899 30 NA NA NOT_NAMED 1899-09-14 15:00:00 TS 41.7475 -56.0345 main 558 419 P_____________ AL051899 41.7475 -56.0345 HU 82 1 30 29
1899246N13322 1899 30 NA NA NOT_NAMED 1899-09-14 18:00:00 TS 43.1000 -55.1000 80 hurdat_atl main 406 261 O_____________ hurdat_atl AL051899 43.1000 -55.1000 HU 80 1 30 26
1899246N13322 1899 30 NA NA NOT_NAMED 1899-09-14 21:00:00 TS 44.4122 -54.2300 main 248 99 P_____________ AL051899 44.4122 -54.2300 HU 77 1 29 23
1899246N13322 1899 30 NA NA NOT_NAMED 1899-09-15 00:00:00 TS 45.8000 -53.5000 75 hurdat_atl main 88 0 O_____________ hurdat_atl AL051899 45.8000 -53.5000 HU 75 1 31 18
1899246N13322 1899 30 NA NA NOT_NAMED 1899-09-15 03:00:00 TS 47.3196 -52.8813 main 0 0 P_____________ AL051899 47.3196 -52.8813 HU 67 1 32 12
1899246N13322 1899 30 NA NA NOT_NAMED 1899-09-15 06:00:00 ET 48.9000 -52.5000 60 hurdat_atl main 55 55 O_____________ hurdat_atl AL051899 48.9000 -52.5000 EX 60 -4 32 6
1899246N13322 1899 30 NA NA NOT_NAMED 1899-09-15 09:00:00 ET 50.4570 -52.3841 main 154 154 P_____________ AL051899 50.4570 -52.3841 EX 55 -4 31 0
1899246N13322 1899 30 NA NA NOT_NAMED 1899-09-15 12:00:00 ET 52.0000 -52.5000 50 hurdat_atl main 212 202 O_____________ hurdat_atl AL051899 52.0000 -52.5000 EX 50 -4 31 356
1899246N13322 1899 30 NA NA NOT_NAMED 1899-09-15 15:00:00 ET 53.5103 -52.7222 main 205 202 P_____________ AL051899 53.5103 -52.7222 EX 45 -4 30 354
1899246N13322 1899 30 NA NA NOT_NAMED 1899-09-15 18:00:00 ET 55.0000 -53.0000 40 hurdat_atl main 248 O_____________ hurdat_atl AL051899 55.0000 -53.0000 EX 40 -4 30 354

About IBTrACS Database

This database is a web-friendly format of International Best Track Archive for Climate Stewardship (IBTrACS), a global best track data archive curated by NOAA dating back to 1842.

Updated: 2021-12-08